createdAt,value
2019-03-17T00:00:06.541Z,85.53
2019-03-17T00:02:36.977Z,85.55
2019-03-17T00:05:04.730Z,86.35
2019-03-17T00:07:32.806Z,86.38
2019-03-17T00:10:00.770Z,86.75
2019-03-17T00:12:31.368Z,86.73
2019-03-17T00:15:05.031Z,87.73
2019-03-17T00:17:28.171Z,87.59
2019-03-17T00:19:56.228Z,87.01
2019-03-17T00:22:24.299Z,86.76
2019-03-17T00:24:54.622Z,87.44
2019-03-17T00:27:22.591Z,87.44
2019-03-17T00:29:50.460Z,87.58
2019-03-17T00:32:18.324Z,88.50
2019-03-17T00:34:46.187Z,88.36
2019-03-17T00:37:14.067Z,88.11
2019-03-17T00:39:41.920Z,88.13
2019-03-17T00:42:09.788Z,88.04
2019-03-17T00:44:37.550Z,88.29
2019-03-17T00:47:05.312Z,88.08
2019-03-17T00:49:33.178Z,87.60
2019-03-17T00:52:01.048Z,87.37
2019-03-17T00:54:29.432Z,88.41
2019-03-17T00:56:57.396Z,88.04
2019-03-17T00:59:25.265Z,87.69
2019-03-17T01:01:53.640Z,87.46
2019-03-17T01:04:21.609Z,87.13
2019-03-17T01:06:49.477Z,86.59
2019-03-17T01:09:17.542Z,86.11
2019-03-17T01:11:45.312Z,86.10
2019-03-17T01:14:13.169Z,85.49
2019-03-17T01:16:40.938Z,86.15
2019-03-17T01:19:08.801Z,85.97
2019-03-17T01:21:36.670Z,86.25
2019-03-17T01:24:04.434Z,85.81
2019-03-17T01:26:32.195Z,86.40
2019-03-17T01:28:59.956Z,85.38
2019-03-17T01:31:27.724Z,85.30
2019-03-17T01:33:55.487Z,84.69
2019-03-17T01:36:23.350Z,84.94
2019-03-17T01:38:51.321Z,85.58
2019-03-17T01:41:19.088Z,85.33
2019-03-17T01:43:46.949Z,85.44
2019-03-17T01:46:14.712Z,85.50
2019-03-17T01:48:42.477Z,85.61
2019-03-17T01:51:10.348Z,84.79
2019-03-17T01:53:39.034Z,84.37
2019-03-17T01:56:06.689Z,84.81
2019-03-17T01:58:34.558Z,85.08
2019-03-17T02:01:02.941Z,85.54
2019-03-17T02:03:30.901Z,84.13
2019-03-17T02:05:58.664Z,85.07
2019-03-17T02:08:26.432Z,84.80
2019-03-17T02:10:54.192Z,83.26
2019-03-17T02:13:22.264Z,83.75
2019-03-17T02:15:50.030Z,83.16
2019-03-17T02:18:17.794Z,83.13
2019-03-17T02:20:45.564Z,81.42
2019-03-17T02:23:13.317Z,82.20
2019-03-17T02:25:41.083Z,82.37
2019-03-17T02:28:08.849Z,83.17
2019-03-17T02:30:36.610Z,84.20
2019-03-17T02:33:04.376Z,83.16
2019-03-17T02:35:39.301Z,83.51
2019-03-17T02:38:02.160Z,82.72
2019-03-17T02:40:29.917Z,83.92
2019-03-17T02:42:57.795Z,83.98
2019-03-17T02:45:25.549Z,84.80
2019-03-17T02:47:53.319Z,83.85
2019-03-17T02:50:21.078Z,83.54
2019-03-17T02:52:49.456Z,84.51
2019-03-17T02:55:17.123Z,84.27
2019-03-17T02:57:44.891Z,84.27
2019-03-17T03:00:12.643Z,83.37
2019-03-17T03:02:40.942Z,82.44
2019-03-17T03:05:09.712Z,82.25
2019-03-17T03:07:37.375Z,83.15
2019-03-17T03:10:05.159Z,82.91
2019-03-17T03:12:32.894Z,83.50
2019-03-17T03:15:00.658Z,83.97
2019-03-17T03:17:28.427Z,84.05
2019-03-17T03:19:56.189Z,83.84
2019-03-17T03:22:23.844Z,83.21
2019-03-17T03:24:51.620Z,82.56
2019-03-17T03:27:20.303Z,83.02
2019-03-17T03:29:48.064Z,82.97
2019-03-17T03:32:15.973Z,83.01
2019-03-17T03:34:44.024Z,83.61
2019-03-17T03:37:11.970Z,83.81
2019-03-17T03:39:39.846Z,83.47
2019-03-17T03:42:07.599Z,83.28
2019-03-17T03:44:35.358Z,82.86
2019-03-17T03:47:03.147Z,82.23
2019-03-17T03:49:30.889Z,81.99
2019-03-17T03:51:59.061Z,82.92
2019-03-17T03:54:27.539Z,82.18
2019-03-17T03:56:55.713Z,82.01
2019-03-17T03:59:23.479Z,81.27
2019-03-17T04:01:51.962Z,81.92
2019-03-17T04:04:19.936Z,81.41
2019-03-17T04:06:47.798Z,82.58
2019-03-17T04:09:15.565Z,81.43
2019-03-17T04:11:43.426Z,81.91
2019-03-17T04:14:11.192Z,80.71
2019-03-17T04:16:38.962Z,80.25
2019-03-17T04:19:06.724Z,81.43
2019-03-17T04:21:34.486Z,81.66
2019-03-17T04:24:02.238Z,81.09
2019-03-17T04:26:30.218Z,81.71
2019-03-17T04:28:58.079Z,82.05
2019-03-17T04:31:25.848Z,83.21
2019-03-17T04:33:53.609Z,82.63
2019-03-17T04:36:21.568Z,82.66
2019-03-17T04:38:50.154Z,82.54
2019-03-17T04:41:18.127Z,83.59
2019-03-17T04:43:45.991Z,83.20
2019-03-17T04:46:13.855Z,82.98
2019-03-17T04:48:41.865Z,82.87
2019-03-17T04:51:09.896Z,83.17
2019-03-17T04:53:38.374Z,82.77
2019-03-17T04:56:06.141Z,81.70
2019-03-17T04:58:34.209Z,82.87
2019-03-17T05:01:02.591Z,81.18
2019-03-17T05:03:30.452Z,81.57
2019-03-17T05:05:58.317Z,81.50
2019-03-17T05:08:26.292Z,81.46
2019-03-17T05:10:54.664Z,81.28
2019-03-17T05:13:22.634Z,81.59
2019-03-17T05:15:50.605Z,78.31
2019-03-17T05:18:18.571Z,78.65
2019-03-17T05:20:46.542Z,77.73
2019-03-17T05:23:14.524Z,78.65
2019-03-17T05:25:42.581Z,78.84
2019-03-17T05:28:10.551Z,78.93
2019-03-17T05:30:38.517Z,78.93
2019-03-17T05:33:06.486Z,78.38
2019-03-17T05:35:34.455Z,76.46
2019-03-17T05:38:02.425Z,76.32
2019-03-17T05:40:30.497Z,75.90
2019-03-17T05:42:58.462Z,75.77
2019-03-17T05:45:26.532Z,77.08
2019-03-17T05:47:54.408Z,77.74
2019-03-17T05:50:22.369Z,77.68
2019-03-17T05:52:51.460Z,78.26
2019-03-17T05:55:19.330Z,77.88
2019-03-17T05:57:47.397Z,78.26
2019-03-17T06:00:17.008Z,78.12
2019-03-17T06:02:45.385Z,78.05
2019-03-17T06:05:13.043Z,77.08
2019-03-17T06:07:40.744Z,75.69
2019-03-17T06:10:08.678Z,76.23
2019-03-17T06:12:36.643Z,76.11
2019-03-17T06:15:09.841Z,75.08
2019-03-17T06:17:37.407Z,74.30
2019-03-17T06:20:08.128Z,72.71
2019-03-17T06:22:35.785Z,72.50
2019-03-17T06:25:07.752Z,75.66
2019-03-17T06:27:35.517Z,76.25
2019-03-17T06:30:13.323Z,74.36
2019-03-17T06:32:41.289Z,73.55
2019-03-17T06:35:09.360Z,73.55
2019-03-17T06:37:37.430Z,73.55
2019-03-17T06:40:11.003Z,74.47
2019-03-17T06:42:38.486Z,73.38
2019-03-17T06:45:08.188Z,72.16
2019-03-17T06:47:35.963Z,72.16
2019-03-17T06:50:07.911Z,72.49
2019-03-17T06:52:35.886Z,72.49
2019-03-17T06:55:07.292Z,72.33
2019-03-17T06:57:34.995Z,72.33
2019-03-17T07:00:05.629Z,70.61
2019-03-17T07:02:33.592Z,71.43
2019-03-17T07:05:01.464Z,71.43
2019-03-17T07:07:29.533Z,71.38
2019-03-17T07:09:57.604Z,70.88
2019-03-17T07:12:25.671Z,69.56
2019-03-17T07:14:53.645Z,71.36
2019-03-17T07:17:21.620Z,70.33
2019-03-17T07:19:49.580Z,70.83
2019-03-17T07:22:17.649Z,70.58
2019-03-17T07:24:45.617Z,71.71
2019-03-17T07:27:14.610Z,71.23
2019-03-17T07:29:42.579Z,71.23
2019-03-17T07:32:10.503Z,68.73
2019-03-17T07:34:38.208Z,65.98
2019-03-17T07:37:06.182Z,65.10
2019-03-17T07:39:34.150Z,66.22
2019-03-17T07:42:01.913Z,66.65
2019-03-17T07:44:29.677Z,66.71
2019-03-17T07:46:57.536Z,66.64
2019-03-17T07:49:25.413Z,64.38
2019-03-17T07:51:53.473Z,64.67
2019-03-17T07:54:21.853Z,67.36
2019-03-17T07:56:49.414Z,64.57
2019-03-17T07:59:17.899Z,64.37
2019-03-17T08:01:46.478Z,66.25
2019-03-17T08:04:14.248Z,68.20
2019-03-17T08:06:42.004Z,68.38
2019-03-17T08:09:09.779Z,68.84
2019-03-17T08:11:37.738Z,69.74
2019-03-17T08:14:05.703Z,71.16
2019-03-17T08:16:33.475Z,70.20
2019-03-17T08:19:02.671Z,69.95
2019-03-17T08:21:30.842Z,69.93
2019-03-17T08:23:58.885Z,70.12
2019-03-17T08:26:26.676Z,70.05
2019-03-17T08:28:54.436Z,70.05
2019-03-17T08:31:22.207Z,69.71
2019-03-17T08:33:50.175Z,69.62
2019-03-17T08:36:18.565Z,70.62
2019-03-17T08:38:46.631Z,70.59
2019-03-17T08:41:14.488Z,69.74
2019-03-17T08:43:53.834Z,69.52
2019-03-17T08:46:12.373Z,69.57
2019-03-17T08:48:40.237Z,69.91
2019-03-17T08:51:07.998Z,70.06
2019-03-17T08:53:36.180Z,71.89
2019-03-17T08:56:04.063Z,73.73
2019-03-17T08:58:31.857Z,72.24
2019-03-17T09:01:01.310Z,73.38
2019-03-17T09:03:29.174Z,73.11
2019-03-17T09:05:56.936Z,70.51
2019-03-17T09:08:34.490Z,71.44
2019-03-17T09:10:55.530Z,73.45
2019-03-17T09:13:23.509Z,69.61
2019-03-17T09:15:51.488Z,71.12
2019-03-17T09:18:19.439Z,71.16
2019-03-17T09:20:47.217Z,67.83
2019-03-17T09:23:15.073Z,67.92
2019-03-17T09:25:42.939Z,67.25
2019-03-17T09:28:10.599Z,66.34
2019-03-17T09:30:38.359Z,66.03
2019-03-17T09:33:06.328Z,66.49
2019-03-17T09:35:34.505Z,66.65
2019-03-17T09:38:02.469Z,66.56
2019-03-17T09:40:30.544Z,66.29
2019-03-17T09:42:58.515Z,68.02
2019-03-17T09:45:26.487Z,68.28
2019-03-17T09:47:54.447Z,67.54
2019-03-17T09:50:23.135Z,64.69
2019-03-17T09:52:51.714Z,65.50
2019-03-17T09:55:19.686Z,65.79
2019-03-17T09:57:47.449Z,64.94
2019-03-17T10:00:18.094Z,66.20
2019-03-17T10:02:46.460Z,65.13
2019-03-17T10:05:14.224Z,63.84
2019-03-17T10:07:42.197Z,62.77
2019-03-17T10:10:15.637Z,64.90
2019-03-17T10:12:43.560Z,65.69
2019-03-17T10:15:16.641Z,65.48
2019-03-17T10:17:44.103Z,65.29
2019-03-17T10:20:17.710Z,65.58
2019-03-17T10:22:45.360Z,65.13
2019-03-17T10:25:13.945Z,65.51
2019-03-17T10:27:41.916Z,64.37
2019-03-17T10:30:18.381Z,63.03
2019-03-17T10:32:46.348Z,61.94
2019-03-17T10:35:14.316Z,62.32
2019-03-17T10:37:42.903Z,63.55
2019-03-17T10:40:13.845Z,64.50
2019-03-17T10:42:41.608Z,66.73
2019-03-17T10:45:10.700Z,70.12
2019-03-17T10:47:38.464Z,72.43
2019-03-17T10:50:20.257Z,72.84
2019-03-17T10:52:48.427Z,74.08
2019-03-17T10:55:17.014Z,74.82
2019-03-17T10:57:44.778Z,73.03
2019-03-17T11:00:19.692Z,72.18
2019-03-17T11:02:47.980Z,71.40
2019-03-17T11:05:16.880Z,71.40
2019-03-17T11:07:44.739Z,69.43
2019-03-17T11:10:13.012Z,66.17
2019-03-17T11:12:40.676Z,66.63
2019-03-17T11:15:19.909Z,65.25
2019-03-17T11:17:48.387Z,65.55
2019-03-17T11:20:16.147Z,63.07
2019-03-17T11:22:43.825Z,61.72
2019-03-17T11:25:15.466Z,63.38
2019-03-17T11:27:43.022Z,63.88
2019-03-17T11:30:13.241Z,65.93
2019-03-17T11:32:41.115Z,64.90
2019-03-17T11:35:09.286Z,65.50
2019-03-17T11:37:37.252Z,68.78
2019-03-17T11:40:11.676Z,67.99
2019-03-17T11:42:39.436Z,66.40
2019-03-17T11:45:10.272Z,67.98
2019-03-17T11:47:37.930Z,67.50
2019-03-17T11:50:08.571Z,69.01
2019-03-17T11:52:36.331Z,69.01
2019-03-17T11:55:06.982Z,70.87
2019-03-17T11:57:34.622Z,69.73
2019-03-17T12:00:05.773Z,70.55
2019-03-17T12:02:33.636Z,68.46
2019-03-17T12:05:01.188Z,65.25
2019-03-17T12:07:28.956Z,65.81
2019-03-17T12:09:56.715Z,65.24
2019-03-17T12:12:24.481Z,64.81
2019-03-17T12:14:52.242Z,67.76
2019-03-17T12:17:19.907Z,70.20
2019-03-17T12:19:47.672Z,70.79
2019-03-17T12:22:15.437Z,69.32
2019-03-17T12:24:43.515Z,69.93
2019-03-17T12:27:11.884Z,71.09
2019-03-17T12:29:39.956Z,72.21
2019-03-17T12:32:07.619Z,71.02
2019-03-17T12:34:35.481Z,69.25
2019-03-17T12:37:03.345Z,69.47
2019-03-17T12:39:31.128Z,69.76
2019-03-17T12:41:58.870Z,69.64
2019-03-17T12:44:26.638Z,70.46
2019-03-17T12:46:54.604Z,70.59
2019-03-17T12:49:22.987Z,70.83
2019-03-17T12:51:50.848Z,71.14
2019-03-17T12:54:19.123Z,70.93
2019-03-17T12:56:47.708Z,70.88
2019-03-17T12:59:15.472Z,68.45
2019-03-17T13:01:43.646Z,67.81
2019-03-17T13:04:12.130Z,67.81
2019-03-17T13:06:39.789Z,71.41
2019-03-17T13:09:07.451Z,71.41
2019-03-17T13:11:35.210Z,71.63
2019-03-17T13:14:03.082Z,69.36
2019-03-17T13:16:30.948Z,69.43
2019-03-17T13:18:58.813Z,69.68
2019-03-17T13:21:26.579Z,70.00
2019-03-17T13:23:54.346Z,71.54
2019-03-17T13:26:22.103Z,71.55
2019-03-17T13:28:50.788Z,72.11
2019-03-17T13:31:20.591Z,71.01
2019-03-17T13:33:47.961Z,71.53
2019-03-17T13:36:15.721Z,70.43
2019-03-17T13:38:43.597Z,70.48
2019-03-17T13:41:11.453Z,69.19
2019-03-17T13:43:39.212Z,71.24
2019-03-17T13:46:06.988Z,69.87
2019-03-17T13:48:34.749Z,70.24
2019-03-17T13:51:02.615Z,70.81
2019-03-17T13:53:30.888Z,70.49
2019-03-17T13:55:58.453Z,69.85
2019-03-17T13:58:26.207Z,70.97
2019-03-17T14:00:54.991Z,70.97
2019-03-17T14:03:22.651Z,71.29
2019-03-17T14:05:50.420Z,70.88
2019-03-17T14:08:18.595Z,72.97
2019-03-17T14:10:46.455Z,72.70
2019-03-17T14:13:14.324Z,72.09
2019-03-17T14:15:42.088Z,71.90
2019-03-17T14:18:09.861Z,71.23
2019-03-17T14:20:38.536Z,69.32
2019-03-17T14:23:06.306Z,71.54
2019-03-17T14:25:36.115Z,71.18
2019-03-17T14:28:03.669Z,70.34
2019-03-17T14:30:31.435Z,70.56
2019-03-17T14:33:00.627Z,70.29
2019-03-17T14:35:29.425Z,70.66
2019-03-17T14:37:57.334Z,70.66
2019-03-17T14:40:25.052Z,69.99
2019-03-17T14:42:55.205Z,69.98
2019-03-17T14:45:22.325Z,69.98
2019-03-17T14:47:51.109Z,70.55
2019-03-17T14:50:20.312Z,70.55
2019-03-17T14:52:49.515Z,70.62
2019-03-17T14:55:17.473Z,72.42
2019-03-17T14:57:45.245Z,70.90
2019-03-17T15:00:18.324Z,70.94
2019-03-17T15:02:46.702Z,71.14
2019-03-17T15:05:14.463Z,71.43
2019-03-17T15:07:42.227Z,71.87
2019-03-17T15:10:21.773Z,70.53
2019-03-17T15:12:49.527Z,71.40
2019-03-17T15:15:18.336Z,70.41
2019-03-17T15:17:45.983Z,71.65
2019-03-17T15:20:18.246Z,70.96
2019-03-17T15:22:47.190Z,71.35
2019-03-17T15:25:15.114Z,70.47
2019-03-17T15:27:43.077Z,71.45
2019-03-17T15:30:19.645Z,70.93
2019-03-17T15:32:47.312Z,70.93
2019-03-17T15:35:15.487Z,71.62
2019-03-17T15:37:43.765Z,71.36
2019-03-17T15:40:13.877Z,71.95
2019-03-17T15:42:42.045Z,72.17
2019-03-17T15:45:13.097Z,71.75
2019-03-17T15:47:40.769Z,71.71
2019-03-17T15:50:11.278Z,72.57
2019-03-17T15:52:38.940Z,73.46
2019-03-17T15:55:09.735Z,73.46
2019-03-17T15:57:37.441Z,73.89
2019-03-17T16:00:09.294Z,72.77
2019-03-17T16:02:37.208Z,72.11
2019-03-17T16:05:05.846Z,72.31
2019-03-17T16:07:42.198Z,70.65
2019-03-17T16:10:06.806Z,70.07
2019-03-17T16:12:34.666Z,70.19
2019-03-17T16:15:04.788Z,70.08
2019-03-17T16:17:32.344Z,69.25
2019-03-17T16:20:00.343Z,69.25
2019-03-17T16:22:28.282Z,69.28
2019-03-17T16:24:56.249Z,67.60
2019-03-17T16:27:24.427Z,67.60
2019-03-17T16:29:52.606Z,68.80
2019-03-17T16:32:20.681Z,67.53
2019-03-17T16:34:48.745Z,66.99
2019-03-17T16:37:16.703Z,68.11
2019-03-17T16:39:44.880Z,68.81
2019-03-17T16:42:12.859Z,68.81
2019-03-17T16:44:40.822Z,68.30
2019-03-17T16:47:08.783Z,68.70
2019-03-17T16:49:36.965Z,68.03
2019-03-17T16:52:04.929Z,67.87
2019-03-17T16:54:33.923Z,68.66
2019-03-17T16:57:02.097Z,68.87
2019-03-17T16:59:30.067Z,69.34
2019-03-17T17:01:58.337Z,69.36
2019-03-17T17:04:26.414Z,68.92
2019-03-17T17:06:55.405Z,67.40
2019-03-17T17:09:23.883Z,67.92
2019-03-17T17:11:57.056Z,68.15
2019-03-17T17:14:21.764Z,68.15
2019-03-17T17:16:49.528Z,68.87
2019-03-17T17:19:17.511Z,68.00
2019-03-17T17:21:45.466Z,69.19
2019-03-17T17:24:13.433Z,68.87
2019-03-17T17:26:41.409Z,69.88
2019-03-17T17:29:11.627Z,69.55
2019-03-17T17:31:39.488Z,69.62
2019-03-17T17:34:07.456Z,69.56
2019-03-17T17:36:35.641Z,69.75
2019-03-17T17:39:06.365Z,69.37
2019-03-17T17:41:33.925Z,69.38
2019-03-17T17:44:02.001Z,69.79
2019-03-17T17:46:29.969Z,70.51
2019-03-17T17:48:58.037Z,69.56
2019-03-17T17:51:26.514Z,70.21
2019-03-17T17:53:54.995Z,71.57
2019-03-17T17:56:22.858Z,70.75
2019-03-17T17:58:50.941Z,71.08
2019-03-17T18:01:19.308Z,72.30
2019-03-17T18:03:51.455Z,72.63
2019-03-17T18:06:16.888Z,71.87
2019-03-17T18:08:45.157Z,72.86
2019-03-17T18:11:13.134Z,72.92
2019-03-17T18:13:41.202Z,72.78
2019-03-17T18:16:09.269Z,73.62
2019-03-17T18:18:37.240Z,73.58
2019-03-17T18:21:05.107Z,74.42
2019-03-17T18:23:33.483Z,73.77
2019-03-17T18:26:01.458Z,74.46
2019-03-17T18:28:29.437Z,75.27
2019-03-17T18:30:57.497Z,75.11
2019-03-17T18:33:25.665Z,74.43
2019-03-17T18:35:53.841Z,74.93
2019-03-17T18:38:22.015Z,74.83
2019-03-17T18:40:49.983Z,75.99
2019-03-17T18:43:17.856Z,75.45
2019-03-17T18:45:45.822Z,74.87
2019-03-17T18:48:13.886Z,74.98
2019-03-17T18:50:41.656Z,76.40
2019-03-17T18:53:09.950Z,76.99
2019-03-17T18:55:37.686Z,76.16
2019-03-17T18:58:05.557Z,76.97
2019-03-17T19:00:33.633Z,77.10
2019-03-17T19:03:02.421Z,76.27
2019-03-17T19:05:30.378Z,77.54
2019-03-17T19:07:58.358Z,76.32
2019-03-17T19:10:26.531Z,76.86
2019-03-17T19:12:55.116Z,76.88
2019-03-17T19:15:23.184Z,77.45
2019-03-17T19:17:51.356Z,78.04
2019-03-17T19:20:20.452Z,77.56
2019-03-17T19:22:48.416Z,77.77
2019-03-17T19:25:19.156Z,78.01
2019-03-17T19:27:47.221Z,77.62
2019-03-17T19:30:16.931Z,78.39
2019-03-17T19:32:45.102Z,78.36
2019-03-17T19:35:13.280Z,78.84
2019-03-17T19:37:41.353Z,78.32
2019-03-17T19:40:19.875Z,78.90
2019-03-17T19:42:58.049Z,79.16
2019-03-17T19:45:17.847Z,79.41
2019-03-17T19:47:45.929Z,79.62
2019-03-17T19:50:19.320Z,80.06
2019-03-17T19:52:47.203Z,80.37
2019-03-17T19:55:15.359Z,80.71
2019-03-17T19:57:43.122Z,81.06
2019-03-17T20:00:20.198Z,81.27
2019-03-17T20:02:48.781Z,81.36
2019-03-17T20:05:16.856Z,80.72
2019-03-17T20:07:44.830Z,82.00
2019-03-17T20:10:32.963Z,81.01
2019-03-17T20:13:11.044Z,80.40
2019-03-17T20:15:30.127Z,80.22
2019-03-17T20:18:00.551Z,81.62
2019-03-17T20:20:28.523Z,81.60
2019-03-17T20:22:56.490Z,81.75
2019-03-17T20:25:24.462Z,81.35
2019-03-17T20:27:52.334Z,80.44
2019-03-17T20:30:20.303Z,81.29
2019-03-17T20:32:48.268Z,81.16
2019-03-17T20:35:16.740Z,80.76
2019-03-17T20:37:46.274Z,82.17
2019-03-17T20:40:16.366Z,82.09
2019-03-17T20:42:44.609Z,82.10
2019-03-17T20:45:15.075Z,81.53
2019-03-17T20:47:42.525Z,81.40
2019-03-17T20:50:15.100Z,82.08
2019-03-17T20:52:42.556Z,82.29
2019-03-17T20:55:11.359Z,82.32
2019-03-17T20:57:39.524Z,82.50
2019-03-17T21:00:14.112Z,82.68
2019-03-17T21:02:42.112Z,82.88
2019-03-17T21:05:10.803Z,82.85
2019-03-17T21:07:39.383Z,82.85
2019-03-17T21:10:10.011Z,83.04
2019-03-17T21:12:37.880Z,82.37
2019-03-17T21:15:19.565Z,82.81
2019-03-17T21:17:47.541Z,83.04
2019-03-17T21:20:20.930Z,83.33
2019-03-17T21:22:48.898Z,83.40
2019-03-17T21:25:24.242Z,83.44
2019-03-17T21:27:52.422Z,83.68
2019-03-17T21:30:28.060Z,83.67
2019-03-17T21:32:55.831Z,84.06
2019-03-17T21:35:23.899Z,83.94
2019-03-17T21:37:51.875Z,84.07
2019-03-17T21:40:20.760Z,83.57
2019-03-17T21:42:49.032Z,83.51
2019-03-17T21:45:17.012Z,82.91
2019-03-17T21:47:45.068Z,83.05
2019-03-17T21:50:20.006Z,83.53
2019-03-17T21:52:48.204Z,84.14
2019-03-17T21:55:16.467Z,83.95
2019-03-17T21:57:44.319Z,83.71
2019-03-17T22:00:16.589Z,84.10
2019-03-17T22:02:44.867Z,84.01
2019-03-17T22:05:12.935Z,83.98
2019-03-17T22:07:49.646Z,83.76
2019-03-17T22:10:18.191Z,83.74
2019-03-17T22:12:45.953Z,84.19
2019-03-17T22:15:14.742Z,84.53
2019-03-17T22:17:42.302Z,84.48
2019-03-17T22:20:11.600Z,84.08
2019-03-17T22:22:39.157Z,84.59
2019-03-17T22:25:08.460Z,85.00
2019-03-17T22:27:36.224Z,84.89
2019-03-17T22:30:13.305Z,85.08
2019-03-17T22:32:41.171Z,84.02
2019-03-17T22:35:09.238Z,83.71
2019-03-17T22:37:37.308Z,83.54
2019-03-17T22:40:13.587Z,83.99
2019-03-17T22:42:41.748Z,84.30
2019-03-17T22:45:14.221Z,84.25
2019-03-17T22:47:42.005Z,84.20
2019-03-17T22:50:11.388Z,83.26
2019-03-17T22:52:38.944Z,83.87
2019-03-17T22:55:08.716Z,84.04
2019-03-17T22:57:43.897Z,84.90
2019-03-17T23:00:35.926Z,85.03
2019-03-17T23:03:05.438Z,85.35
2019-03-17T23:05:32.993Z,85.45
2019-03-17T23:08:00.978Z,85.60
2019-03-17T23:10:29.835Z,85.85
2019-03-17T23:12:57.719Z,85.43
2019-03-17T23:15:25.586Z,85.66
2019-03-17T23:17:53.652Z,85.46
2019-03-17T23:20:21.730Z,85.26
2019-03-17T23:22:49.793Z,85.03
2019-03-17T23:25:17.678Z,85.35
2019-03-17T23:27:45.632Z,85.41
2019-03-17T23:30:14.837Z,85.84
2019-03-17T23:32:42.392Z,86.06
2019-03-17T23:35:10.464Z,85.43
2019-03-17T23:37:38.430Z,85.64
2019-03-17T23:40:09.795Z,86.04
2019-03-17T23:42:37.435Z,85.45
2019-03-17T23:45:07.654Z,85.88
2019-03-17T23:47:35.113Z,86.34
2019-03-17T23:50:06.056Z,85.87
2019-03-17T23:52:34.944Z,86.11
2019-03-17T23:55:05.646Z,85.72
2019-03-17T23:57:33.612Z,85.65
